Time;durP1;ratioP1;P1;durP2;ratioP2;P2;SDS_P1;SDS_P2;PMS_P1;PMS_P2;Temp;Humidity;BMP_temperature;BMP_pressure;BME280_temperature;BME280_humidity;BME280_pressure;Samples;Min_cycle;Max_cycle;Signal;HPM_P1;HPM_P2
2022/02/11 00:00:46;;;;;;;6.40;2.13;;;6.30;78.10;;;;;;5012182;28;20037;-76
2022/02/11 00:08:22;;;;;;;5.15;2.08;;;6.30;78.00;;;;;;5009925;28;20502;-76
2022/02/11 00:10:47;;;;;;;5.60;2.53;;;6.20;78.00;;;;;;5011717;28;20030;-76
2022/02/11 00:13:13;;;;;;;6.20;2.35;;;6.20;78.10;;;;;;5017526;28;20032;-77
2022/02/11 00:15:42;;;;;;;6.47;2.53;;;6.20;78.30;;;;;;5024473;28;20083;-77
2022/02/11 00:18:14;;;;;;;5.13;2.20;;;6.10;78.30;;;;;;5023159;28;20043;-77
2022/02/11 00:20:43;;;;;;;4.88;2.28;;;6.10;78.40;;;;;;5015801;28;20083;-77
2022/02/11 00:23:09;;;;;;;5.38;2.10;;;6.10;78.50;;;;;;5012379;28;20065;-76
2022/02/11 00:25:39;;;;;;;6.10;2.13;;;6.10;78.50;;;;;;5011953;28;20553;-77
2022/02/11 00:31:09;;;;;;;3.63;1.60;;;6.00;78.60;;;;;;5020795;28;20044;-76
2022/02/11 00:33:36;;;;;;;4.88;2.20;;;6.00;78.70;;;;;;4995207;28;20042;-77
2022/02/11 00:36:05;;;;;;;4.53;2.00;;;6.00;78.70;;;;;;5017831;28;20093;-77
2022/02/11 01:02:47;;;;;;;6.07;2.53;;;5.90;78.90;;;;;;5012072;28;20397;-77
2022/02/11 01:05:13;;;;;;;7.63;2.65;;;5.90;78.90;;;;;;5009851;28;20649;-77
2022/02/11 01:07:38;;;;;;;10.13;2.40;;;5.90;78.90;;;;;;5009374;28;20022;-77
2022/02/11 01:10:04;;;;;;;5.47;2.08;;;5.90;78.80;;;;;;5011383;28;20030;-77
2022/02/11 01:12:30;;;;;;;6.32;1.95;;;5.90;78.80;;;;;;5010375;28;20025;-77
2022/02/11 01:14:57;;;;;;;4.75;2.22;;;5.90;78.80;;;;;;5011375;28;20084;-78
2022/02/11 01:17:32;;;;;;;7.20;2.40;;;5.90;78.80;;;;;;5008791;28;20424;-77
2022/02/11 01:20:11;;;;;;;5.05;1.92;;;6.00;78.80;;;;;;5011428;28;20018;-77
2022/02/11 01:25:25;;;;;;;5.50;2.33;;;5.90;78.80;;;;;;5011327;28;20026;-77
2022/02/11 01:28:00;;;;;;;4.40;1.90;;;5.80;78.80;;;;;;4990883;28;20038;-77
2022/02/11 01:33:13;;;;;;;4.03;1.70;;;5.80;78.90;;;;;;5011314;28;20037;-78
2022/02/11 01:41:16;;;;;;;6.07;2.10;;;5.80;78.90;;;;;;5010850;28;20080;-77
2022/02/11 01:43:55;;;;;;;5.72;1.85;;;5.80;78.90;;;;;;5010846;28;20068;-78
2022/02/11 01:55:02;;;;;;;6.05;2.30;;;5.80;78.90;;;;;;5010664;28;20116;-78
2022/02/11 01:58:06;;;;;;;4.97;1.80;;;5.80;78.80;;;;;;5009764;28;20034;-78
2022/02/11 02:00:46;;;;;;;5.40;2.22;;;5.80;78.80;;;;;;5010577;28;20385;-77
2022/02/11 02:03:41;;;;;;;4.60;1.70;;;5.80;78.80;;;;;;5011214;28;20439;-78
2022/02/11 02:09:10;;;;;;;4.57;1.73;;;5.80;78.70;;;;;;5010524;28;20033;-78
2022/02/11 02:11:58;;;;;;;3.65;1.70;;;5.80;78.70;;;;;;5009989;28;20554;-77
2022/02/11 02:22:43;;;;;;;6.75;1.73;;;5.90;79.00;;;;;;5010020;28;20491;-78
2022/02/11 03:34:54;;;;;;;7.85;2.17;;;6.00;82.50;;;;;;5011090;28;20080;-77
2022/02/11 03:51:35;;;;;;;9.45;2.08;;;6.00;83.20;;;;;;5012923;28;20030;-76
2022/02/11 04:08:31;;;;;;;5.93;1.90;;;6.20;83.10;;;;;;5012736;28;20048;-77
2022/02/11 04:23:43;;;;;;;8.32;2.15;;;6.20;82.90;;;;;;5010991;28;20037;-78
2022/02/11 04:52:51;;;;;;;6.50;1.70;;;6.20;82.90;;;;;;5010439;28;20403;-77
2022/02/11 04:55:44;;;;;;;9.27;2.03;;;6.20;82.70;;;;;;5011757;28;20524;-75
2022/02/11 05:00:54;;;;;;;10.32;1.92;;;6.30;82.70;;;;;;5011696;28;20056;-77
2022/02/11 05:03:19;;;;;;;8.90;1.98;;;6.30;83.30;;;;;;5011988;28;20112;-78
2022/02/11 05:05:51;;;;;;;8.82;1.95;;;6.30;82.50;;;;;;5010296;28;20412;-77
2022/02/11 05:08:20;;;;;;;10.85;2.35;;;6.30;82.50;;;;;;5009414;28;20033;-76
2022/02/11 05:10:47;;;;;;;6.68;1.73;;;6.20;82.20;;;;;;5011208;28;20092;-76
2022/02/11 05:13:14;;;;;;;10.65;2.00;;;6.20;82.00;;;;;;5011336;28;20084;-76
2022/02/11 05:15:40;;;;;;;10.45;1.88;;;6.20;82.00;;;;;;5011568;28;20061;-76
2022/02/11 05:18:05;;;;;;;6.20;1.75;;;6.20;81.90;;;;;;5010426;28;20034;-76
2022/02/11 05:20:31;;;;;;;7.82;1.88;;;6.20;81.80;;;;;;5010935;28;20041;-76
2022/02/11 05:22:57;;;;;;;6.38;1.80;;;6.20;81.70;;;;;;5010748;28;20056;-77
2022/02/11 05:25:23;;;;;;;5.35;1.35;;;6.20;81.70;;;;;;5010919;28;20488;-76
2022/02/11 05:27:48;;;;;;;5.90;1.63;;;6.20;81.60;;;;;;5009937;28;20030;-76
2022/02/11 05:30:14;;;;;;;5.43;1.60;;;6.20;81.50;;;;;;5010494;28;20088;-76
2022/02/11 05:32:40;;;;;;;7.03;1.90;;;6.20;81.50;;;;;;5011180;28;20137;-76
2022/02/11 05:35:06;;;;;;;7.47;2.05;;;6.20;81.50;;;;;;5010685;28;20021;-79
2022/02/11 05:37:32;;;;;;;7.88;1.80;;;6.10;81.40;;;;;;5009490;28;20038;-77
2022/02/11 05:39:57;;;;;;;5.65;1.70;;;6.20;81.40;;;;;;5010474;28;20025;-79
2022/02/11 05:42:23;;;;;;;8.05;1.60;;;6.20;82.10;;;;;;5011502;28;20018;-77
2022/02/11 05:44:49;;;;;;;6.22;2.03;;;6.20;81.40;;;;;;5010560;28;20022;-77
2022/02/11 05:47:15;;;;;;;4.60;1.45;;;6.20;81.30;;;;;;5009854;28;20025;-77
2022/02/11 05:49:40;;;;;;;6.85;1.60;;;6.20;81.30;;;;;;5010694;28;20029;-77
2022/02/11 05:52:06;;;;;;;6.38;1.70;;;6.10;81.30;;;;;;5011037;28;20026;-77
2022/02/11 05:54:31;;;;;;;6.25;1.73;;;6.10;81.40;;;;;;5010612;28;20610;-77
2022/02/11 05:56:57;;;;;;;8.35;1.92;;;6.10;81.50;;;;;;5009694;28;20018;-76
2022/02/11 05:59:23;;;;;;;5.88;1.65;;;6.10;81.50;;;;;;5010696;28;20514;-76
2022/02/11 06:01:48;;;;;;;6.70;1.77;;;6.10;81.50;;;;;;5010693;28;20483;-76
2022/02/11 06:04:14;;;;;;;9.20;1.75;;;6.10;81.60;;;;;;5010544;28;20396;-77
2022/02/11 06:06:39;;;;;;;10.48;2.00;;;6.00;81.60;;;;;;5008811;28;20049;-76
2022/02/11 06:09:05;;;;;;;11.02;2.20;;;6.10;81.70;;;;;;5006100;28;20042;-75
2022/02/11 06:11:30;;;;;;;9.45;2.15;;;6.00;81.60;;;;;;5007606;28;20431;-78
2022/02/11 06:13:56;;;;;;;7.93;2.08;;;6.00;81.50;;;;;;5004981;28;20034;-77
2022/02/11 06:16:22;;;;;;;11.05;2.58;;;6.10;81.40;;;;;;5007121;28;20037;-78
2022/02/11 06:18:48;;;;;;;10.10;2.22;;;6.00;81.20;;;;;;5003477;28;20034;-76
2022/02/11 06:21:14;;;;;;;9.98;2.10;;;6.00;81.20;;;;;;5008996;28;20022;-76
2022/02/11 06:23:40;;;;;;;7.97;2.30;;;6.00;81.20;;;;;;5005573;28;20033;-76
2022/02/11 06:26:05;;;;;;;8.70;2.20;;;5.90;81.20;;;;;;5005645;28;20025;-77
2022/02/11 06:28:31;;;;;;;6.20;1.65;;;5.90;81.00;;;;;;5008276;28;20064;-76
2022/02/11 06:30:57;;;;;;;10.23;1.80;;;5.90;80.90;;;;;;5003525;28;20029;-76
2022/02/11 06:33:22;;;;;;;4.60;1.50;;;5.90;80.60;;;;;;5004687;28;20038;-75
2022/02/11 06:35:48;;;;;;;6.63;1.58;;;5.80;80.40;;;;;;5008253;28;20022;-84
2022/02/11 06:38:13;;;;;;;7.90;1.80;;;5.80;80.20;;;;;;5005806;28;20042;-83
2022/02/11 06:40:39;;;;;;;7.20;1.77;;;5.80;80.10;;;;;;5017922;28;20014;-78
2022/02/11 06:43:06;;;;;;;7.55;1.83;;;5.70;80.10;;;;;;5011441;28;20056;-77
2022/02/11 06:45:32;;;;;;;8.90;1.98;;;5.70;80.10;;;;;;5009195;28;20096;-78
2022/02/11 06:47:58;;;;;;;6.18;1.45;;;5.70;80.10;;;;;;5000557;28;20477;-77
2022/02/11 06:50:24;;;;;;;7.78;2.42;;;5.70;80.20;;;;;;5008913;28;20038;-77
2022/02/11 06:52:49;;;;;;;9.75;2.10;;;5.60;80.10;;;;;;5006131;28;20032;-78
2022/02/11 06:55:15;;;;;;;5.13;1.42;;;5.60;80.20;;;;;;5004590;28;20018;-78
2022/02/11 06:57:42;;;;;;;9.00;2.05;;;5.60;80.20;;;;;;5004628;28;20036;-79
2022/02/11 07:00:09;;;;;;;8.07;1.90;;;5.60;80.30;;;;;;4995480;28;20525;-79
2022/02/11 07:02:35;;;;;;;7.15;2.03;;;5.60;80.50;;;;;;4996951;28;20033;-79
2022/02/11 07:05:02;;;;;;;9.52;2.17;;;5.60;80.50;;;;;;5007583;28;20033;-79
2022/02/11 07:07:27;;;;;;;7.22;1.90;;;5.70;80.50;;;;;;5001735;28;20026;-80
2022/02/11 07:09:54;;;;;;;7.82;1.90;;;5.60;80.50;;;;;;5006104;28;20100;-78
2022/02/11 07:12:20;;;;;;;3.97;1.80;;;5.60;80.50;;;;;;5008389;28;20022;-77
2022/02/11 07:14:45;;;;;;;8.43;2.10;;;5.70;80.60;;;;;;5008300;28;20030;-77
2022/02/11 07:17:12;;;;;;;4.03;1.63;;;5.60;80.50;;;;;;5009667;28;20615;-78
2022/02/11 07:19:38;;;;;;;8.48;2.22;;;5.60;80.50;;;;;;5013536;28;20022;-79
2022/02/11 07:22:04;;;;;;;7.88;2.45;;;5.60;80.60;;;;;;5012382;28;20025;-78
2022/02/11 07:24:30;;;;;;;6.13;1.80;;;5.60;80.70;;;;;;5014303;28;20025;-78
2022/02/11 07:26:57;;;;;;;9.82;2.13;;;5.60;80.70;;;;;;5011387;28;20030;-77
2022/02/11 07:29:23;;;;;;;7.50;2.10;;;5.60;80.70;;;;;;5011688;28;20026;-78
2022/02/11 07:31:48;;;;;;;10.07;2.28;;;5.60;80.80;;;;;;4992863;28;20510;-77
2022/02/11 07:34:14;;;;;;;6.82;1.70;;;5.60;80.80;;;;;;5012668;28;20050;-79
2022/02/11 07:36:39;;;;;;;8.60;1.88;;;5.60;80.70;;;;;;5009688;28;20017;-79
2022/02/11 07:39:05;;;;;;;7.28;1.88;;;5.70;80.60;;;;;;5009821;28;20396;-78
2022/02/11 07:41:31;;;;;;;6.82;2.08;;;5.70;80.60;;;;;;5010343;28;20049;-79
2022/02/11 07:43:57;;;;;;;10.40;2.40;;;5.70;80.50;;;;;;5012260;28;20017;-79
2022/02/11 07:46:23;;;;;;;8.18;2.10;;;5.60;80.30;;;;;;5010333;28;20033;-78
2022/02/11 07:48:49;;;;;;;7.10;2.35;;;5.60;80.30;;;;;;5006995;28;20018;-80
2022/02/11 07:51:15;;;;;;;7.68;2.17;;;5.60;80.20;;;;;;4989870;28;20037;-80
2022/02/11 07:53:41;;;;;;;8.02;2.17;;;5.60;80.10;;;;;;5009089;28;20548;-79
2022/02/11 07:56:07;;;;;;;10.98;2.47;;;5.70;80.10;;;;;;5010732;28;20535;-80
2022/02/11 07:58:36;;;;;;;5.63;1.85;;;5.70;80.00;;;;;;5010275;28;20037;-78
2022/02/11 08:01:01;;;;;;;11.70;2.35;;;5.70;79.80;;;;;;5012876;28;20033;-79
2022/02/11 08:03:28;;;;;;;7.88;1.60;;;5.80;79.70;;;;;;5011359;28;20403;-80
2022/02/11 08:05:54;;;;;;;8.68;2.65;;;5.70;79.40;;;;;;5018001;28;20033;-82
2022/02/11 08:08:27;;;;;;;6.40;1.75;;;5.80;79.40;;;;;;5011199;28;20041;-79
2022/02/11 08:10:53;;;;;;;;;;;5.90;79.40;;;;;;5009930;28;20021;-81
2022/02/11 08:13:20;;;;;;;8.77;2.47;;;5.90;79.30;;;;;;5008959;28;19906;-80
2022/02/11 08:15:46;;;;;;;12.13;2.63;;;5.90;79.00;;;;;;5010983;28;20026;-80
2022/02/11 08:18:12;;;;;;;9.48;2.58;;;5.90;78.90;;;;;;5012855;28;20053;-78
2022/02/11 08:20:37;;;;;;;10.77;2.33;;;6.00;78.80;;;;;;5007940;28;20018;-79
2022/02/11 08:23:03;;;;;;;7.68;2.15;;;6.00;78.60;;;;;;5010145;28;20033;-78
2022/02/11 08:25:28;;;;;;;10.40;1.92;;;6.10;78.50;;;;;;5010608;28;20017;-78
2022/02/11 08:27:54;;;;;;;10.38;2.00;;;6.10;78.40;;;;;;5006810;28;20384;-80
2022/02/11 08:30:20;;;;;;;8.15;1.98;;;6.20;78.30;;;;;;5006775;28;20022;-80
2022/02/11 08:32:46;;;;;;;6.57;1.83;;;6.30;78.20;;;;;;5007585;28;20057;-79
2022/02/11 08:35:12;;;;;;;9.57;2.40;;;6.30;78.10;;;;;;5007327;28;20475;-80
2022/02/11 08:37:38;;;;;;;11.20;2.50;;;6.30;77.90;;;;;;5007389;28;20066;-81
2022/02/11 08:40:04;;;;;;;9.07;2.35;;;6.30;77.80;;;;;;5007556;28;20053;-79
2022/02/11 08:42:30;;;;;;;8.40;2.03;;;6.40;77.70;;;;;;5000265;28;20037;-80
2022/02/11 08:44:55;;;;;;;9.77;2.60;;;6.40;77.70;;;;;;5010119;28;20018;-77
2022/02/11 08:47:21;;;;;;;10.65;2.63;;;6.50;77.70;;;;;;5010087;28;20030;-77
2022/02/11 08:49:47;;;;;;;10.35;2.72;;;6.50;77.50;;;;;;5011276;28;20057;-80
2022/02/11 08:52:12;;;;;;;10.07;2.17;;;6.60;77.40;;;;;;5013490;28;20076;-81
2022/02/11 08:54:38;;;;;;;14.75;2.92;;;6.60;77.30;;;;;;5006172;28;20117;-82
2022/02/11 08:57:04;;;;;;;8.40;2.65;;;6.70;77.20;;;;;;5007839;28;20033;-82
2022/02/11 08:59:30;;;;;;;8.95;2.63;;;6.90;77.10;;;;;;5007064;28;20091;-80
2022/02/11 09:01:55;;;;;;;13.43;2.97;;;7.00;76.90;;;;;;5009699;28;20117;-79
2022/02/11 09:04:21;;;;;;;8.40;2.80;;;7.00;76.50;;;;;;5008739;28;20029;-77
2022/02/11 09:06:47;;;;;;;13.18;3.17;;;7.00;76.30;;;;;;5006423;28;20020;-78
2022/02/11 09:09:13;;;;;;;12.50;2.38;;;7.10;76.30;;;;;;5012248;28;20519;-77
2022/02/11 09:11:39;;;;;;;8.88;2.33;;;7.10;76.20;;;;;;5012631;28;20044;-76
2022/02/11 09:14:06;;;;;;;9.88;2.50;;;7.20;76.30;;;;;;5008350;28;20492;-77
2022/02/11 09:16:32;;;;;;;11.85;2.72;;;7.20;75.90;;;;;;5005886;28;20039;-78
2022/02/11 09:18:58;;;;;;;9.30;2.78;;;7.20;75.80;;;;;;5005773;28;20053;-77
2022/02/11 09:21:24;;;;;;;14.98;2.60;;;7.10;75.60;;;;;;5010541;28;20129;-78
2022/02/11 09:23:49;;;;;;;14.18;3.15;;;7.20;75.60;;;;;;5009866;28;20032;-75
2022/02/11 09:26:15;;;;;;;8.70;2.40;;;7.30;75.50;;;;;;5018194;28;20030;-78
2022/02/11 09:28:41;;;;;;;16.23;3.30;;;7.30;75.10;;;;;;5006379;28;20405;-76
2022/02/11 09:31:08;;;;;;;10.63;2.65;;;7.30;74.50;;;;;;5011977;28;20033;-80
2022/02/11 09:33:34;;;;;;;13.10;3.42;;;7.30;74.30;;;;;;5012296;28;20036;-81
2022/02/11 09:36:00;;;;;;;12.27;3.30;;;7.30;72.50;;;;;;5012766;28;20026;-78
2022/02/11 09:38:25;;;;;;;11.68;2.75;;;7.30;71.90;;;;;;5008111;28;20480;-76
2022/02/11 09:40:51;;;;;;;12.38;2.95;;;7.30;71.70;;;;;;5009506;28;20464;-76
2022/02/11 09:43:25;;;;;;;8.48;2.47;;;7.30;71.50;;;;;;5013137;28;20640;-77
2022/02/11 09:45:53;;;;;;;8.18;2.40;;;7.30;70.20;;;;;;5007055;28;20025;-78
2022/02/11 09:48:19;;;;;;;9.75;2.30;;;7.40;68.80;;;;;;5008999;28;20013;-76
2022/02/11 09:50:44;;;;;;;10.40;2.40;;;7.40;66.40;;;;;;5010913;28;20029;-75
2022/02/11 09:53:10;;;;;;;8.40;2.13;;;7.40;64.50;;;;;;5003403;28;20027;-74
2022/02/11 09:55:40;;;;;;;8.48;2.00;;;7.40;63.30;;;;;;5010668;28;20037;-77
2022/02/11 09:58:11;;;;;;;6.07;1.90;;;7.40;63.10;;;;;;5011098;28;20117;-75
2022/02/11 10:00:39;;;;;;;6.75;1.90;;;7.50;62.60;;;;;;5000248;28;20030;-76
2022/02/11 10:03:15;;;;;;;6.78;1.90;;;7.50;61.40;;;;;;4995442;28;20790;-76
2022/02/11 10:05:41;;;;;;;6.88;2.10;;;7.60;61.00;;;;;;5005123;28;20385;-76
2022/02/11 10:08:07;;;;;;;6.63;1.73;;;7.80;61.10;;;;;;5001573;28;20030;-74
2022/02/11 10:10:38;;;;;;;4.65;1.70;;;7.90;61.10;;;;;;5007116;28;20699;-77
2022/02/11 10:13:10;;;;;;;8.55;2.10;;;8.00;61.00;;;;;;5003320;28;20084;-76
2022/02/11 10:15:38;;;;;;;8.52;1.73;;;8.10;59.80;;;;;;5007695;28;20021;-76
2022/02/11 10:18:07;;;;;;;9.13;1.90;;;8.10;59.50;;;;;;5006509;28;20026;-76
2022/02/11 10:20:35;;;;;;;7.80;2.15;;;8.10;58.40;;;;;;4998435;28;20488;-75
2022/02/11 10:23:31;;;;;;;6.78;2.30;;;8.10;56.80;;;;;;5007033;28;20108;-77
2022/02/11 10:26:07;;;;;;;8.00;2.35;;;8.00;56.50;;;;;;4992388;28;20052;-77
2022/02/11 10:28:41;;;;;;;5.72;1.98;;;8.00;56.10;;;;;;5003146;28;20030;-76
2022/02/11 10:31:23;;;;;;;6.68;1.85;;;7.90;56.80;;;;;;5021202;28;20021;-76
2022/02/11 10:33:49;;;;;;;7.93;1.80;;;7.90;56.80;;;;;;5006554;28;20030;-75
2022/02/11 10:36:17;;;;;;;6.22;2.45;;;7.90;56.70;;;;;;5006800;28;20121;-76
2022/02/11 10:38:43;;;;;;;6.07;1.85;;;7.90;56.50;;;;;;5006100;28;20434;-74
2022/02/11 10:41:08;;;;;;;6.80;1.70;;;7.90;57.00;;;;;;5008356;28;20108;-75
2022/02/11 10:43:34;;;;;;;6.03;1.70;;;8.00;57.60;;;;;;5010794;28;20021;-77
2022/02/11 10:46:04;;;;;;;6.45;1.83;;;8.00;57.60;;;;;;5011716;28;20060;-76
2022/02/11 10:48:34;;;;;;;10.60;1.95;;;8.00;56.60;;;;;;5006453;28;20041;-76
2022/02/11 10:51:02;;;;;;;7.60;1.95;;;8.00;56.50;;;;;;5006861;28;20024;-74
2022/02/11 10:53:34;;;;;;;6.78;1.80;;;8.00;56.60;;;;;;5009916;28;20269;-74
2022/02/11 10:56:01;;;;;;;9.82;2.05;;;8.00;56.90;;;;;;5004658;28;20026;-74
2022/02/11 10:58:32;;;;;;;9.27;2.10;;;8.10;56.90;;;;;;4997340;28;20204;-76
2022/02/11 11:01:01;;;;;;;4.97;1.73;;;8.10;56.60;;;;;;5007931;28;20516;-75
2022/02/11 11:03:33;;;;;;;7.47;2.03;;;8.20;57.00;;;;;;5005248;28;20033;-77
2022/02/11 11:06:04;;;;;;;7.05;1.90;;;8.30;57.10;;;;;;5009634;28;20029;-75
2022/02/11 11:08:33;;;;;;;5.25;1.40;;;8.50;56.40;;;;;;5007124;28;20030;-75
2022/02/11 11:11:03;;;;;;;6.15;1.60;;;8.50;56.20;;;;;;5010787;28;20022;-76
2022/02/11 11:13:29;;;;;;;7.63;1.73;;;8.70;56.40;;;;;;5004290;28;20380;-76
2022/02/11 11:15:56;;;;;;;8.23;1.90;;;8.70;55.20;;;;;;5009375;28;20026;-75
2022/02/11 11:18:21;;;;;;;5.60;1.90;;;8.60;54.30;;;;;;5005522;28;20496;-75
2022/02/11 11:20:49;;;;;;;7.93;2.05;;;8.60;55.00;;;;;;5002608;28;20095;-76
2022/02/11 11:23:22;;;;;;;8.63;1.98;;;8.50;54.90;;;;;;5009136;28;20435;-77
2022/02/11 11:26:03;;;;;;;7.28;1.70;;;8.50;54.90;;;;;;5008704;28;20613;-76
2022/02/11 11:28:43;;;;;;;7.88;1.90;;;8.40;55.20;;;;;;5014163;28;20038;-76
2022/02/11 11:31:23;;;;;;;6.82;1.85;;;8.40;55.60;;;;;;5010792;28;20021;-76
2022/02/11 11:33:50;;;;;;;9.63;2.28;;;8.40;55.40;;;;;;5009382;28;20377;-75
2022/02/11 11:36:18;;;;;;;7.95;1.88;;;8.40;54.90;;;;;;5013290;28;20029;-77
2022/02/11 11:38:46;;;;;;;7.95;1.80;;;8.40;54.90;;;;;;5008889;28;20519;-76
2022/02/11 11:41:14;;;;;;;6.63;1.90;;;8.40;54.40;;;;;;5007391;28;20388;-78
2022/02/11 11:43:51;;;;;;;7.40;1.88;;;8.40;54.10;;;;;;5010154;28;20022;-78
2022/02/11 11:46:16;;;;;;;6.10;1.90;;;8.40;53.40;;;;;;5017106;28;20013;-75
2022/02/11 11:48:59;;;;;;;6.95;1.75;;;8.50;52.80;;;;;;5010186;28;20443;-75
2022/02/11 11:51:28;;;;;;;10.10;1.98;;;8.60;52.40;;;;;;5011525;28;20029;-76
2022/02/11 11:54:16;;;;;;;5.45;1.42;;;8.60;51.80;;;;;;5014191;28;20080;-78
2022/02/11 11:56:49;;;;;;;5.00;1.50;;;8.70;52.20;;;;;;5012901;28;20029;-76
2022/02/11 11:59:20;;;;;;;8.52;2.50;;;8.80;52.10;;;;;;5011558;28;20584;-77
2022/02/11 12:01:53;;;;;;;8.43;2.00;;;8.90;52.10;;;;;;5008499;28;20389;-77
2022/02/11 12:04:24;;;;;;;6.93;1.80;;;9.00;51.80;;;;;;5014801;28;20117;-76
2022/02/11 12:06:56;;;;;;;4.38;1.52;;;9.00;51.10;;;;;;5023609;28;20017;-76
2022/02/11 12:09:24;;;;;;;7.07;1.60;;;8.90;51.40;;;;;;5009537;28;20120;-76
2022/02/11 12:12:01;;;;;;;6.90;1.85;;;8.80;52.00;;;;;;5018378;28;20076;-75
2022/02/11 12:14:30;;;;;;;5.72;1.73;;;8.90;52.20;;;;;;5019316;28;20084;-77
2022/02/11 12:16:57;;;;;;;4.57;1.55;;;9.40;51.90;;;;;;5010508;28;20441;-78
2022/02/11 12:19:23;;;;;;;4.90;1.60;;;9.40;50.90;;;;;;5009693;28;20038;-77
2022/02/11 12:21:48;;;;;;;7.30;1.40;;;9.60;51.20;;;;;;5010594;28;20020;-76
2022/02/11 12:30:10;;;;;;;7.10;1.70;;;9.30;51.00;;;;;;5006471;28;20029;-76
2022/02/11 12:32:48;;;;;;;6.43;1.70;;;9.00;51.50;;;;;;5007717;28;20046;-75
2022/02/11 12:35:21;;;;;;;4.45;1.30;;;8.90;51.80;;;;;;5006633;28;20022;-77
2022/02/11 12:37:47;;;;;;;8.07;2.00;;;8.80;52.10;;;;;;4993918;28;20133;-75
2022/02/11 12:40:18;;;;;;;7.10;1.67;;;8.60;51.40;;;;;;5002563;28;20034;-77
2022/02/11 12:42:46;;;;;;;7.32;2.00;;;8.70;51.50;;;;;;4986744;28;20042;-76
2022/02/11 12:45:14;;;;;;;5.13;1.40;;;8.70;50.10;;;;;;5007077;28;20447;-73
2022/02/11 12:47:40;;;;;;;6.60;1.52;;;8.70;50.20;;;;;;5006382;28;20050;-73
2022/02/11 12:50:07;;;;;;;3.53;1.27;;;8.60;49.60;;;;;;5006614;28;20040;-76
2022/02/11 12:52:36;;;;;;;6.13;1.50;;;8.60;49.10;;;;;;5008298;28;20056;-76
2022/02/11 12:55:22;;;;;;;4.50;1.30;;;8.50;49.50;;;;;;5007438;28;20387;-77
2022/02/11 12:57:53;;;;;;;5.47;1.50;;;8.50;49.50;;;;;;5003541;28;20103;-78
2022/02/11 13:00:24;;;;;;;4.90;1.50;;;8.60;49.70;;;;;;5000749;28;20099;-76
2022/02/11 13:02:51;;;;;;;4.05;1.30;;;8.80;50.20;;;;;;5000112;28;20014;-75
2022/02/11 13:05:24;;;;;;;3.85;1.50;;;9.00;50.30;;;;;;5021759;28;20045;-76
2022/02/11 13:07:54;;;;;;;5.68;1.65;;;9.20;49.70;;;;;;5002109;28;20032;-76
2022/02/11 13:10:27;;;;;;;7.20;1.77;;;9.20;48.80;;;;;;4998418;28;20053;-75
2022/02/11 13:12:55;;;;;;;3.55;1.40;;;9.30;48.40;;;;;;5003921;28;20101;-77
2022/02/11 13:15:28;;;;;;;5.60;1.60;;;9.60;48.70;;;;;;5000919;28;20026;-76
2022/02/11 13:17:54;;;;;;;;;;;10.00;48.30;;;;;;4997970;28;20041;-75
2022/02/11 13:20:30;;;;;;;3.55;1.40;;;10.20;47.50;;;;;;4998253;28;19956;-75
2022/02/11 13:22:58;;;;;;;7.60;1.67;;;10.00;46.80;;;;;;5003571;28;20026;-75
2022/02/11 13:25:24;;;;;;;5.65;1.40;;;10.00;47.60;;;;;;5010819;28;20065;-76
2022/02/11 13:27:52;;;;;;;4.80;1.40;;;9.90;46.50;;;;;;5009825;28;20064;-75
2022/02/11 13:30:29;;;;;;;7.40;1.58;;;9.90;47.60;;;;;;5003265;28;20446;-75
2022/02/11 13:32:57;;;;;;;5.15;1.35;;;9.90;46.70;;;;;;5005820;28;20025;-76
2022/02/11 13:35:23;;;;;;;5.30;1.50;;;9.80;47.20;;;;;;5012091;28;20516;-78
2022/02/11 13:37:53;;;;;;;3.63;1.42;;;9.80;47.00;;;;;;5004469;28;20486;-76
2022/02/11 13:40:22;;;;;;;5.80;1.40;;;9.70;47.10;;;;;;5010014;28;20709;-75
2022/02/11 13:43:01;;;;;;;7.95;1.60;;;9.50;46.70;;;;;;5011337;28;20014;-75
2022/02/11 13:45:29;;;;;;;3.83;1.30;;;9.40;47.30;;;;;;5006691;28;20431;-77
2022/02/11 13:48:07;;;;;;;2.88;1.20;;;9.40;47.60;;;;;;5007417;28;20026;-78
2022/02/11 13:50:57;;;;;;;4.90;1.77;;;9.30;48.00;;;;;;5008147;28;20259;-76
2022/02/11 13:53:28;;;;;;;5.38;1.38;;;9.30;48.30;;;;;;5002843;28;20029;-79
2022/02/11 13:55:54;;;;;;;4.53;1.48;;;9.30;48.60;;;;;;5009717;28;20030;-78
2022/02/11 13:58:20;;;;;;;6.90;1.65;;;9.20;48.60;;;;;;5006728;28;20041;-77
2022/02/11 14:00:45;;;;;;;6.88;1.65;;;9.10;49.00;;;;;;5009904;28;20116;-77
2022/02/11 14:03:26;;;;;;;5.38;1.25;;;9.10;49.20;;;;;;5002340;28;20157;-77
2022/02/11 14:06:01;;;;;;;3.60;1.25;;;9.20;49.60;;;;;;5002003;28;20037;-77
2022/02/11 14:08:43;;;;;;;5.57;1.35;;;9.40;49.90;;;;;;5017071;28;20072;-77
2022/02/11 14:11:15;;;;;;;4.07;1.25;;;9.40;50.20;;;;;;5006086;28;20029;-76
2022/02/11 14:13:42;;;;;;;5.38;1.58;;;9.40;50.40;;;;;;5005187;28;20022;-76
2022/02/11 14:16:08;;;;;;;5.70;1.50;;;9.30;50.30;;;;;;5007322;28;20083;-77
2022/02/11 14:18:37;;;;;;;4.30;1.20;;;9.20;50.50;;;;;;5006353;28;20042;-78
2022/02/11 14:21:03;;;;;;;5.57;1.30;;;9.20;50.50;;;;;;5006967;28;20028;-77
2022/02/11 14:23:30;;;;;;;3.72;1.30;;;9.10;50.20;;;;;;5008509;28;20706;-77
2022/02/11 14:25:56;;;;;;;5.13;1.38;;;9.10;49.70;;;;;;5004738;28;20034;-75
2022/02/11 14:28:24;;;;;;;4.70;1.30;;;9.00;50.00;;;;;;5008316;28;20342;-76
2022/02/11 14:30:49;;;;;;;6.05;1.45;;;9.00;50.10;;;;;;5010512;28;20105;-78
2022/02/11 14:33:15;;;;;;;3.08;1.20;;;8.90;50.20;;;;;;5009839;28;20097;-77
2022/02/11 14:35:41;;;;;;;5.63;1.17;;;8.90;50.20;;;;;;5008498;28;20030;-74
2022/02/11 14:38:07;;;;;;;3.05;1.30;;;9.00;51.30;;;;;;5010828;28;20140;-76
2022/02/11 14:40:33;;;;;;;6.10;1.35;;;8.90;50.10;;;;;;5008288;28;20488;-74
2022/02/11 14:43:02;;;;;;;3.60;1.40;;;8.90;50.20;;;;;;5005358;28;20144;-75
2022/02/11 14:45:27;;;;;;;6.07;1.70;;;8.80;49.70;;;;;;5005017;28;20692;-75
2022/02/11 14:47:53;;;;;;;4.57;1.90;;;8.80;49.90;;;;;;5006849;28;20015;-76
2022/02/11 14:50:18;;;;;;;3.70;1.52;;;8.70;49.90;;;;;;5007358;28;20034;-75
2022/02/11 14:52:44;;;;;;;3.92;1.83;;;8.70;50.00;;;;;;5010379;28;20486;-76
2022/02/11 14:55:09;;;;;;;4.03;1.30;;;8.70;50.10;;;;;;5010433;28;20033;-77
2022/02/11 14:57:35;;;;;;;5.05;1.40;;;8.60;50.10;;;;;;5005385;28;20164;-75
2022/02/11 15:00:01;;;;;;;3.38;1.15;;;8.60;50.20;;;;;;5007499;28;20064;-76
2022/02/11 15:02:26;;;;;;;4.28;1.40;;;8.60;50.20;;;;;;5010210;28;20387;-76
2022/02/11 15:04:54;;;;;;;7.40;1.85;;;8.60;50.30;;;;;;5008125;28;20042;-76
2022/02/11 15:07:20;;;;;;;4.13;1.52;;;8.60;50.30;;;;;;5008673;28;20084;-75
2022/02/11 15:09:45;;;;;;;5.85;1.45;;;8.50;50.30;;;;;;5009561;28;20026;-75
2022/02/11 15:12:11;;;;;;;5.80;2.45;;;8.50;50.80;;;;;;5010963;28;20399;-74
2022/02/11 15:14:37;;;;;;;7.20;3.47;;;8.50;50.90;;;;;;5007204;28;20523;-75
2022/02/11 15:17:02;;;;;;;6.10;2.78;;;8.50;51.10;;;;;;5005222;28;20026;-75
2022/02/11 15:19:28;;;;;;;5.50;2.00;;;8.50;51.80;;;;;;5005605;28;20089;-75
2022/02/11 15:21:54;;;;;;;3.47;1.60;;;8.50;51.10;;;;;;5013232;28;20519;-75
2022/02/11 15:24:19;;;;;;;3.28;1.10;;;8.50;51.30;;;;;;5010927;28;20037;-74
2022/02/11 15:26:46;;;;;;;3.75;1.60;;;8.60;51.60;;;;;;5011873;28;20022;-74
2022/02/11 15:29:11;;;;;;;4.03;1.70;;;8.70;51.70;;;;;;5012119;28;20504;-75
2022/02/11 15:31:38;;;;;;;4.15;1.73;;;8.80;51.70;;;;;;5010170;28;20108;-75
2022/02/11 15:34:05;;;;;;;4.55;1.40;;;8.80;51.80;;;;;;5013420;28;20018;-76
2022/02/11 15:36:31;;;;;;;4.55;1.73;;;8.70;51.50;;;;;;5008959;28;20232;-75
2022/02/11 15:38:57;;;;;;;5.85;1.50;;;8.70;51.80;;;;;;5009814;28;20030;-75
2022/02/11 15:41:23;;;;;;;4.60;1.30;;;8.70;51.80;;;;;;5009623;28;20607;-76
2022/02/11 15:43:48;;;;;;;5.82;1.70;;;8.60;52.00;;;;;;5006784;28;20080;-74
2022/02/11 15:46:15;;;;;;;5.07;1.85;;;8.60;51.90;;;;;;5010751;28;20053;-74
2022/02/11 15:48:41;;;;;;;5.57;1.60;;;8.50;52.10;;;;;;5010620;28;20061;-74
2022/02/11 15:51:09;;;;;;;5.75;2.05;;;8.50;52.20;;;;;;5015292;28;20068;-74
2022/02/11 15:53:35;;;;;;;6.75;1.92;;;8.50;52.30;;;;;;5014643;28;20018;-73
2022/02/11 15:56:00;;;;;;;6.10;1.65;;;8.40;52.60;;;;;;5013065;28;20352;-74
2022/02/11 15:58:26;;;;;;;5.03;1.70;;;8.40;53.00;;;;;;5010490;28;20044;-74
2022/02/11 16:00:52;;;;;;;5.82;2.10;;;8.40;53.10;;;;;;5003815;28;20512;-75
2022/02/11 16:03:18;;;;;;;7.00;1.83;;;8.50;53.30;;;;;;5012419;28;20441;-75
2022/02/11 16:05:43;;;;;;;6.43;2.30;;;8.50;53.40;;;;;;5011806;28;20499;-74
2022/02/11 16:08:09;;;;;;;7.43;2.55;;;8.40;53.40;;;;;;5005106;28;20021;-74
2022/02/11 16:10:34;;;;;;;10.00;3.42;;;8.40;53.70;;;;;;5013070;28;20117;-76
2022/02/11 16:13:00;;;;;;;7.20;2.63;;;8.30;53.80;;;;;;5004823;28;20561;-76
2022/02/11 16:15:26;;;;;;;6.38;2.45;;;8.30;54.00;;;;;;5009545;28;20568;-77
2022/02/11 16:18:01;;;;;;;6.90;2.13;;;8.30;54.20;;;;;;5014529;28;20068;-76
2022/02/11 16:20:40;;;;;;;5.18;1.85;;;8.30;54.20;;;;;;5013791;28;20033;-77
2022/02/11 16:23:08;;;;;;;6.68;2.90;;;8.20;54.30;;;;;;5009728;28;20113;-75
2022/02/11 16:25:37;;;;;;;4.75;2.15;;;8.20;54.50;;;;;;5017836;28;20492;-74
2022/02/11 16:28:05;;;;;;;4.22;2.10;;;8.20;54.40;;;;;;5017076;28;20109;-74
2022/02/11 16:30:30;;;;;;;5.50;1.90;;;8.20;54.60;;;;;;5013086;28;20034;-75